sensor_id;sensor_type;location;lat;lon;timestamp;P1;durP1;ratioP1;P2;durP2;ratioP2
7495;SDS011;3789;47.064;15.482;2024-01-15T00:00:14;44.50;;;22.97;;
7495;SDS011;3789;47.064;15.482;2024-01-15T00:02:50;37.37;;;20.67;;
7495;SDS011;3789;47.064;15.482;2024-01-15T00:05:17;35.07;;;21.77;;
7495;SDS011;3789;47.064;15.482;2024-01-15T00:07:50;42.27;;;20.90;;
7495;SDS011;3789;47.064;15.482;2024-01-15T00:10:18;43.77;;;22.47;;
7495;SDS011;3789;47.064;15.482;2024-01-15T00:12:45;40.10;;;24.03;;
7495;SDS011;3789;47.064;15.482;2024-01-15T00:15:15;42.03;;;22.80;;
7495;SDS011;3789;47.064;15.482;2024-01-15T00:17:47;45.20;;;22.13;;
7495;SDS011;3789;47.064;15.482;2024-01-15T00:20:17;45.03;;;21.97;;
7495;SDS011;3789;47.064;15.482;2024-01-15T00:22:49;40.23;;;22.93;;
7495;SDS011;3789;47.064;15.482;2024-01-15T00:25:20;45.27;;;23.57;;
7495;SDS011;3789;47.064;15.482;2024-01-15T00:27:48;45.93;;;22.83;;
7495;SDS011;3789;47.064;15.482;2024-01-15T00:30:21;50.13;;;24.40;;
7495;SDS011;3789;47.064;15.482;2024-01-15T00:32:50;38.70;;;20.60;;
7495;SDS011;3789;47.064;15.482;2024-01-15T00:35:18;50.17;;;23.40;;
7495;SDS011;3789;47.064;15.482;2024-01-15T00:37:54;44.70;;;22.73;;
7495;SDS011;3789;47.064;15.482;2024-01-15T00:40:24;45.63;;;23.33;;
7495;SDS011;3789;47.064;15.482;2024-01-15T00:42:53;43.83;;;22.63;;
7495;SDS011;3789;47.064;15.482;2024-01-15T00:45:23;47.73;;;23.20;;
7495;SDS011;3789;47.064;15.482;2024-01-15T00:47:56;40.33;;;22.00;;
7495;SDS011;3789;47.064;15.482;2024-01-15T00:50:34;47.50;;;22.47;;
7495;SDS011;3789;47.064;15.482;2024-01-15T00:53:09;51.00;;;23.33;;
7495;SDS011;3789;47.064;15.482;2024-01-15T00:55:39;48.37;;;22.20;;
7495;SDS011;3789;47.064;15.482;2024-01-15T00:58:09;44.97;;;22.90;;
7495;SDS011;3789;47.064;15.482;2024-01-15T01:00:39;53.67;;;23.93;;
7495;SDS011;3789;47.064;15.482;2024-01-15T01:03:10;54.97;;;24.97;;
7495;SDS011;3789;47.064;15.482;2024-01-15T01:09:12;38.70;;;22.30;;
7495;SDS011;3789;47.064;15.482;2024-01-15T01:11:41;53.73;;;25.93;;
7495;SDS011;3789;47.064;15.482;2024-01-15T01:14:11;49.67;;;24.37;;
7495;SDS011;3789;47.064;15.482;2024-01-15T01:16:41;54.77;;;21.63;;
7495;SDS011;3789;47.064;15.482;2024-01-15T01:19:10;47.70;;;23.43;;
7495;SDS011;3789;47.064;15.482;2024-01-15T01:21:45;43.37;;;23.10;;
7495;SDS011;3789;47.064;15.482;2024-01-15T01:24:24;47.40;;;19.83;;
7495;SDS011;3789;47.064;15.482;2024-01-15T01:26:53;43.77;;;21.27;;
7495;SDS011;3789;47.064;15.482;2024-01-15T01:29:20;42.10;;;20.50;;
7495;SDS011;3789;47.064;15.482;2024-01-15T01:31:52;40.70;;;19.03;;
7495;SDS011;3789;47.064;15.482;2024-01-15T01:34:25;41.37;;;20.97;;
7495;SDS011;3789;47.064;15.482;2024-01-15T01:37:02;37.07;;;18.97;;
7495;SDS011;3789;47.064;15.482;2024-01-15T01:39:36;43.80;;;22.27;;
7495;SDS011;3789;47.064;15.482;2024-01-15T01:42:05;42.30;;;20.43;;
7495;SDS011;3789;47.064;15.482;2024-01-15T01:44:41;40.47;;;20.53;;
7495;SDS011;3789;47.064;15.482;2024-01-15T01:47:10;42.00;;;23.20;;
7495;SDS011;3789;47.064;15.482;2024-01-15T01:49:42;52.63;;;24.87;;
7495;SDS011;3789;47.064;15.482;2024-01-15T01:52:10;45.47;;;22.70;;
7495;SDS011;3789;47.064;15.482;2024-01-15T01:54:39;47.40;;;23.50;;
7495;SDS011;3789;47.064;15.482;2024-01-15T01:57:17;43.90;;;22.07;;
7495;SDS011;3789;47.064;15.482;2024-01-15T01:59:48;44.17;;;20.53;;
7495;SDS011;3789;47.064;15.482;2024-01-15T02:02:19;47.67;;;24.13;;
7495;SDS011;3789;47.064;15.482;2024-01-15T02:04:54;45.40;;;23.13;;
7495;SDS011;3789;47.064;15.482;2024-01-15T02:07:30;50.20;;;23.43;;
7495;SDS011;3789;47.064;15.482;2024-01-15T02:10:11;49.20;;;24.30;;
7495;SDS011;3789;47.064;15.482;2024-01-15T02:12:42;46.27;;;24.37;;
7495;SDS011;3789;47.064;15.482;2024-01-15T02:15:12;49.17;;;23.97;;
7495;SDS011;3789;47.064;15.482;2024-01-15T02:20:37;50.87;;;23.90;;
7495;SDS011;3789;47.064;15.482;2024-01-15T02:23:07;51.20;;;24.03;;
7495;SDS011;3789;47.064;15.482;2024-01-15T02:25:46;51.77;;;21.80;;
7495;SDS011;3789;47.064;15.482;2024-01-15T02:28:22;52.47;;;23.70;;
7495;SDS011;3789;47.064;15.482;2024-01-15T02:30:53;41.60;;;21.33;;
7495;SDS011;3789;47.064;15.482;2024-01-15T02:33:24;38.67;;;19.03;;
7495;SDS011;3789;47.064;15.482;2024-01-15T02:35:53;43.07;;;22.20;;
7495;SDS011;3789;47.064;15.482;2024-01-15T02:38:22;50.13;;;22.93;;
7495;SDS011;3789;47.064;15.482;2024-01-15T02:40:53;39.50;;;21.93;;
7495;SDS011;3789;47.064;15.482;2024-01-15T02:43:20;45.17;;;21.93;;
7495;SDS011;3789;47.064;15.482;2024-01-15T02:45:51;44.03;;;22.63;;
7495;SDS011;3789;47.064;15.482;2024-01-15T02:48:22;36.83;;;19.57;;
7495;SDS011;3789;47.064;15.482;2024-01-15T02:50:58;40.50;;;19.73;;
7495;SDS011;3789;47.064;15.482;2024-01-15T02:53:32;47.90;;;21.40;;
7495;SDS011;3789;47.064;15.482;2024-01-15T02:56:03;44.73;;;21.50;;
7495;SDS011;3789;47.064;15.482;2024-01-15T02:58:35;41.73;;;19.70;;
7495;SDS011;3789;47.064;15.482;2024-01-15T03:01:04;38.97;;;19.53;;
7495;SDS011;3789;47.064;15.482;2024-01-15T03:03:35;38.70;;;20.17;;
7495;SDS011;3789;47.064;15.482;2024-01-15T03:06:07;44.67;;;22.87;;
7495;SDS011;3789;47.064;15.482;2024-01-15T03:08:36;38.20;;;18.90;;
7495;SDS011;3789;47.064;15.482;2024-01-15T03:11:07;37.77;;;18.57;;
7495;SDS011;3789;47.064;15.482;2024-01-15T03:13:36;40.13;;;18.53;;
7495;SDS011;3789;47.064;15.482;2024-01-15T03:16:06;33.10;;;16.93;;
7495;SDS011;3789;47.064;15.482;2024-01-15T03:18:33;38.67;;;16.90;;
7495;SDS011;3789;47.064;15.482;2024-01-15T03:21:04;34.13;;;18.17;;
7495;SDS011;3789;47.064;15.482;2024-01-15T03:23:33;35.87;;;18.70;;
7495;SDS011;3789;47.064;15.482;2024-01-15T03:26:01;37.33;;;17.20;;
7495;SDS011;3789;47.064;15.482;2024-01-15T03:28:31;32.97;;;17.03;;
7495;SDS011;3789;47.064;15.482;2024-01-15T03:31:00;36.13;;;18.97;;
7495;SDS011;3789;47.064;15.482;2024-01-15T03:33:30;32.43;;;17.07;;
7495;SDS011;3789;47.064;15.482;2024-01-15T03:35:58;34.93;;;19.10;;
7495;SDS011;3789;47.064;15.482;2024-01-15T03:38:39;35.10;;;18.43;;
7495;SDS011;3789;47.064;15.482;2024-01-15T03:41:11;32.63;;;17.73;;
7495;SDS011;3789;47.064;15.482;2024-01-15T03:43:39;30.23;;;16.77;;
7495;SDS011;3789;47.064;15.482;2024-01-15T03:46:07;34.07;;;16.23;;
7495;SDS011;3789;47.064;15.482;2024-01-15T03:48:37;20.03;;;13.27;;
7495;SDS011;3789;47.064;15.482;2024-01-15T03:51:08;29.47;;;14.60;;
7495;SDS011;3789;47.064;15.482;2024-01-15T03:53:38;25.57;;;14.60;;
7495;SDS011;3789;47.064;15.482;2024-01-15T03:56:07;23.00;;;11.73;;
7495;SDS011;3789;47.064;15.482;2024-01-15T03:58:43;24.60;;;14.93;;
7495;SDS011;3789;47.064;15.482;2024-01-15T04:01:11;31.70;;;14.80;;
7495;SDS011;3789;47.064;15.482;2024-01-15T04:03:39;26.97;;;14.57;;
7495;SDS011;3789;47.064;15.482;2024-01-15T04:06:09;25.63;;;16.43;;
7495;SDS011;3789;47.064;15.482;2024-01-15T04:08:47;28.87;;;15.07;;
7495;SDS011;3789;47.064;15.482;2024-01-15T04:11:16;27.77;;;15.23;;
7495;SDS011;3789;47.064;15.482;2024-01-15T04:13:45;24.97;;;15.63;;
7495;SDS011;3789;47.064;15.482;2024-01-15T04:16:12;38.77;;;17.97;;
7495;SDS011;3789;47.064;15.482;2024-01-15T04:18:49;40.63;;;19.20;;
7495;SDS011;3789;47.064;15.482;2024-01-15T04:21:19;41.37;;;21.47;;
7495;SDS011;3789;47.064;15.482;2024-01-15T04:23:49;40.03;;;21.40;;
7495;SDS011;3789;47.064;15.482;2024-01-15T04:26:28;37.77;;;21.53;;
7495;SDS011;3789;47.064;15.482;2024-01-15T04:29:06;51.47;;;23.20;;
7495;SDS011;3789;47.064;15.482;2024-01-15T04:31:41;42.60;;;21.20;;
7495;SDS011;3789;47.064;15.482;2024-01-15T04:34:13;50.63;;;22.80;;
7495;SDS011;3789;47.064;15.482;2024-01-15T04:36:47;43.47;;;22.60;;
7495;SDS011;3789;47.064;15.482;2024-01-15T04:39:25;44.73;;;23.53;;
7495;SDS011;3789;47.064;15.482;2024-01-15T04:41:55;46.53;;;20.47;;
7495;SDS011;3789;47.064;15.482;2024-01-15T04:44:25;40.43;;;22.47;;
7495;SDS011;3789;47.064;15.482;2024-01-15T04:46:55;55.20;;;23.27;;
7495;SDS011;3789;47.064;15.482;2024-01-15T04:49:31;48.90;;;23.33;;
7495;SDS011;3789;47.064;15.482;2024-01-15T04:52:00;46.07;;;23.30;;
7495;SDS011;3789;47.064;15.482;2024-01-15T04:54:29;46.50;;;23.40;;
7495;SDS011;3789;47.064;15.482;2024-01-15T04:56:59;59.70;;;23.33;;
7495;SDS011;3789;47.064;15.482;2024-01-15T04:59:34;41.70;;;20.43;;
7495;SDS011;3789;47.064;15.482;2024-01-15T05:02:03;53.33;;;23.20;;
7495;SDS011;3789;47.064;15.482;2024-01-15T05:04:33;41.17;;;19.97;;
7495;SDS011;3789;47.064;15.482;2024-01-15T05:07:01;42.77;;;21.93;;
7495;SDS011;3789;47.064;15.482;2024-01-15T05:09:31;49.33;;;22.60;;
7495;SDS011;3789;47.064;15.482;2024-01-15T05:12:08;38.63;;;21.10;;
7495;SDS011;3789;47.064;15.482;2024-01-15T05:14:37;46.63;;;22.23;;
7495;SDS011;3789;47.064;15.482;2024-01-15T05:17:13;38.10;;;21.73;;
7495;SDS011;3789;47.064;15.482;2024-01-15T05:19:40;42.70;;;19.83;;
7495;SDS011;3789;47.064;15.482;2024-01-15T05:22:12;40.50;;;21.87;;
7495;SDS011;3789;47.064;15.482;2024-01-15T05:24:40;48.73;;;22.83;;
7495;SDS011;3789;47.064;15.482;2024-01-15T05:27:08;46.80;;;20.93;;
7495;SDS011;3789;47.064;15.482;2024-01-15T05:29:47;31.20;;;16.70;;
7495;SDS011;3789;47.064;15.482;2024-01-15T05:32:15;47.20;;;22.10;;
7495;SDS011;3789;47.064;15.482;2024-01-15T05:34:44;43.73;;;21.23;;
7495;SDS011;3789;47.064;15.482;2024-01-15T05:37:15;40.20;;;20.90;;
7495;SDS011;3789;47.064;15.482;2024-01-15T05:39:44;43.43;;;22.03;;
7495;SDS011;3789;47.064;15.482;2024-01-15T05:42:12;42.60;;;21.53;;
7495;SDS011;3789;47.064;15.482;2024-01-15T05:44:48;49.20;;;21.40;;
7495;SDS011;3789;47.064;15.482;2024-01-15T05:47:15;56.07;;;24.13;;
7495;SDS011;3789;47.064;15.482;2024-01-15T05:49:46;51.77;;;21.57;;
7495;SDS011;3789;47.064;15.482;2024-01-15T05:52:16;43.63;;;20.33;;
7495;SDS011;3789;47.064;15.482;2024-01-15T05:54:53;43.57;;;22.83;;
7495;SDS011;3789;47.064;15.482;2024-01-15T05:57:24;39.90;;;20.87;;
7495;SDS011;3789;47.064;15.482;2024-01-15T05:59:54;54.10;;;23.43;;
7495;SDS011;3789;47.064;15.482;2024-01-15T06:02:22;33.13;;;20.13;;
7495;SDS011;3789;47.064;15.482;2024-01-15T06:04:51;43.67;;;20.67;;
7495;SDS011;3789;47.064;15.482;2024-01-15T06:07:22;35.70;;;18.27;;
7495;SDS011;3789;47.064;15.482;2024-01-15T06:09:50;33.67;;;18.43;;
7495;SDS011;3789;47.064;15.482;2024-01-15T06:12:18;42.07;;;20.00;;
7495;SDS011;3789;47.064;15.482;2024-01-15T06:14:48;51.80;;;22.10;;
7495;SDS011;3789;47.064;15.482;2024-01-15T06:17:25;42.80;;;20.83;;
7495;SDS011;3789;47.064;15.482;2024-01-15T06:19:55;28.27;;;16.40;;
7495;SDS011;3789;47.064;15.482;2024-01-15T06:22:27;21.13;;;10.77;;
7495;SDS011;3789;47.064;15.482;2024-01-15T06:24:58;18.83;;;12.50;;
7495;SDS011;3789;47.064;15.482;2024-01-15T06:27:26;14.43;;;9.67;;
7495;SDS011;3789;47.064;15.482;2024-01-15T06:29:56;17.13;;;10.60;;
7495;SDS011;3789;47.064;15.482;2024-01-15T06:32:26;19.63;;;11.60;;
7495;SDS011;3789;47.064;15.482;2024-01-15T06:34:58;23.20;;;12.87;;
7495;SDS011;3789;47.064;15.482;2024-01-15T06:37:27;24.57;;;12.33;;
7495;SDS011;3789;47.064;15.482;2024-01-15T06:39:57;17.40;;;11.20;;
7495;SDS011;3789;47.064;15.482;2024-01-15T06:42:28;20.57;;;11.90;;
7495;SDS011;3789;47.064;15.482;2024-01-15T06:44:56;18.40;;;10.33;;
7495;SDS011;3789;47.064;15.482;2024-01-15T06:47:24;15.57;;;9.87;;
7495;SDS011;3789;47.064;15.482;2024-01-15T06:49:54;15.53;;;9.10;;
7495;SDS011;3789;47.064;15.482;2024-01-15T06:52:23;14.87;;;9.20;;
7495;SDS011;3789;47.064;15.482;2024-01-15T06:54:59;22.97;;;13.43;;
7495;SDS011;3789;47.064;15.482;2024-01-15T06:57:30;22.73;;;13.07;;
7495;SDS011;3789;47.064;15.482;2024-01-15T06:59:59;30.67;;;16.97;;
7495;SDS011;3789;47.064;15.482;2024-01-15T07:02:30;26.67;;;15.33;;
7495;SDS011;3789;47.064;15.482;2024-01-15T07:05:02;27.10;;;12.10;;
7495;SDS011;3789;47.064;15.482;2024-01-15T07:07:37;30.87;;;15.57;;
7495;SDS011;3789;47.064;15.482;2024-01-15T07:10:06;36.03;;;17.33;;
7495;SDS011;3789;47.064;15.482;2024-01-15T07:12:38;38.40;;;19.13;;
7495;SDS011;3789;47.064;15.482;2024-01-15T07:15:15;46.07;;;20.07;;
7495;SDS011;3789;47.064;15.482;2024-01-15T07:17:48;38.80;;;21.83;;
7495;SDS011;3789;47.064;15.482;2024-01-15T07:20:18;34.60;;;16.07;;
7495;SDS011;3789;47.064;15.482;2024-01-15T07:22:46;36.17;;;19.07;;
7495;SDS011;3789;47.064;15.482;2024-01-15T07:25:21;46.17;;;21.77;;
7495;SDS011;3789;47.064;15.482;2024-01-15T07:27:49;44.63;;;22.40;;
7495;SDS011;3789;47.064;15.482;2024-01-15T07:30:19;50.73;;;23.13;;
7495;SDS011;3789;47.064;15.482;2024-01-15T07:32:49;42.87;;;21.07;;
7495;SDS011;3789;47.064;15.482;2024-01-15T07:35:23;56.97;;;26.50;;
7495;SDS011;3789;47.064;15.482;2024-01-15T07:37:52;51.47;;;23.40;;
7495;SDS011;3789;47.064;15.482;2024-01-15T07:40:22;52.93;;;23.93;;
7495;SDS011;3789;47.064;15.482;2024-01-15T07:42:51;48.63;;;23.47;;
7495;SDS011;3789;47.064;15.482;2024-01-15T07:45:23;52.40;;;26.53;;
7495;SDS011;3789;47.064;15.482;2024-01-15T07:47:53;45.13;;;24.47;;
7495;SDS011;3789;47.064;15.482;2024-01-15T07:50:21;47.33;;;23.40;;
7495;SDS011;3789;47.064;15.482;2024-01-15T07:52:54;46.70;;;22.17;;
7495;SDS011;3789;47.064;15.482;2024-01-15T07:55:23;44.77;;;21.97;;
7495;SDS011;3789;47.064;15.482;2024-01-15T07:57:50;53.87;;;23.70;;
7495;SDS011;3789;47.064;15.482;2024-01-15T08:00:41;38.40;;;21.60;;
7495;SDS011;3789;47.064;15.482;2024-01-15T08:03:10;40.00;;;21.33;;
7495;SDS011;3789;47.064;15.482;2024-01-15T08:05:41;46.97;;;21.77;;
7495;SDS011;3789;47.064;15.482;2024-01-15T08:08:11;37.37;;;20.70;;
7495;SDS011;3789;47.064;15.482;2024-01-15T08:10:38;49.90;;;21.73;;
7495;SDS011;3789;47.064;15.482;2024-01-15T08:13:06;43.30;;;21.37;;
7495;SDS011;3789;47.064;15.482;2024-01-15T08:15:44;45.07;;;23.00;;
7495;SDS011;3789;47.064;15.482;2024-01-15T08:18:15;35.43;;;19.70;;
7495;SDS011;3789;47.064;15.482;2024-01-15T08:20:59;33.27;;;18.07;;
7495;SDS011;3789;47.064;15.482;2024-01-15T08:23:36;41.67;;;20.70;;
7495;SDS011;3789;47.064;15.482;2024-01-15T08:26:06;28.37;;;15.40;;
7495;SDS011;3789;47.064;15.482;2024-01-15T08:28:35;27.47;;;16.73;;
7495;SDS011;3789;47.064;15.482;2024-01-15T08:31:06;33.90;;;17.63;;
7495;SDS011;3789;47.064;15.482;2024-01-15T08:33:38;36.67;;;18.50;;
7495;SDS011;3789;47.064;15.482;2024-01-15T08:36:07;34.30;;;16.87;;
7495;SDS011;3789;47.064;15.482;2024-01-15T08:38:38;37.20;;;18.07;;
7495;SDS011;3789;47.064;15.482;2024-01-15T08:41:09;28.67;;;16.23;;
7495;SDS011;3789;47.064;15.482;2024-01-15T08:43:38;27.57;;;15.30;;
7495;SDS011;3789;47.064;15.482;2024-01-15T08:46:07;29.17;;;15.17;;
7495;SDS011;3789;47.064;15.482;2024-01-15T08:48:45;24.73;;;14.10;;
7495;SDS011;3789;47.064;15.482;2024-01-15T08:51:14;22.67;;;13.90;;
7495;SDS011;3789;47.064;15.482;2024-01-15T08:53:44;27.80;;;15.27;;
7495;SDS011;3789;47.064;15.482;2024-01-15T08:56:15;33.50;;;16.03;;
7495;SDS011;3789;47.064;15.482;2024-01-15T08:58:44;45.80;;;22.27;;
7495;SDS011;3789;47.064;15.482;2024-01-15T09:01:17;46.37;;;24.87;;
7495;SDS011;3789;47.064;15.482;2024-01-15T09:03:47;48.27;;;24.03;;
7495;SDS011;3789;47.064;15.482;2024-01-15T09:06:18;37.37;;;19.90;;
7495;SDS011;3789;47.064;15.482;2024-01-15T09:08:48;46.70;;;22.17;;
7495;SDS011;3789;47.064;15.482;2024-01-15T09:11:17;43.67;;;19.50;;
7495;SDS011;3789;47.064;15.482;2024-01-15T09:13:50;39.83;;;19.27;;
7495;SDS011;3789;47.064;15.482;2024-01-15T09:16:18;42.87;;;20.77;;
7495;SDS011;3789;47.064;15.482;2024-01-15T09:18:47;30.80;;;17.87;;
7495;SDS011;3789;47.064;15.482;2024-01-15T09:21:20;40.67;;;20.03;;
7495;SDS011;3789;47.064;15.482;2024-01-15T09:23:50;43.57;;;21.87;;
7495;SDS011;3789;47.064;15.482;2024-01-15T09:26:27;38.63;;;21.90;;
7495;SDS011;3789;47.064;15.482;2024-01-15T09:28:54;37.87;;;19.90;;
7495;SDS011;3789;47.064;15.482;2024-01-15T09:31:23;39.53;;;20.17;;
7495;SDS011;3789;47.064;15.482;2024-01-15T09:33:54;33.17;;;19.40;;
7495;SDS011;3789;47.064;15.482;2024-01-15T09:36:28;32.07;;;19.90;;
7495;SDS011;3789;47.064;15.482;2024-01-15T09:38:57;37.17;;;19.50;;
7495;SDS011;3789;47.064;15.482;2024-01-15T09:41:25;34.67;;;18.70;;
7495;SDS011;3789;47.064;15.482;2024-01-15T09:43:56;37.07;;;20.17;;
7495;SDS011;3789;47.064;15.482;2024-01-15T09:46:25;37.17;;;19.60;;
7495;SDS011;3789;47.064;15.482;2024-01-15T09:48:53;44.37;;;18.37;;
7495;SDS011;3789;47.064;15.482;2024-01-15T09:51:21;33.57;;;18.37;;
7495;SDS011;3789;47.064;15.482;2024-01-15T09:53:50;37.00;;;20.00;;
7495;SDS011;3789;47.064;15.482;2024-01-15T09:56:27;37.13;;;20.80;;
7495;SDS011;3789;47.064;15.482;2024-01-15T09:58:58;33.83;;;18.77;;
7495;SDS011;3789;47.064;15.482;2024-01-15T10:01:28;34.83;;;18.23;;
7495;SDS011;3789;47.064;15.482;2024-01-15T10:04:03;28.70;;;16.90;;
7495;SDS011;3789;47.064;15.482;2024-01-15T10:06:35;34.83;;;17.03;;
7495;SDS011;3789;47.064;15.482;2024-01-15T10:09:07;29.60;;;15.67;;
7495;SDS011;3789;47.064;15.482;2024-01-15T10:11:37;33.37;;;15.90;;
7495;SDS011;3789;47.064;15.482;2024-01-15T10:14:05;32.00;;;16.73;;
7495;SDS011;3789;47.064;15.482;2024-01-15T10:16:40;26.43;;;16.53;;
7495;SDS011;3789;47.064;15.482;2024-01-15T10:19:17;34.40;;;17.57;;
7495;SDS011;3789;47.064;15.482;2024-01-15T10:21:46;25.33;;;16.33;;
7495;SDS011;3789;47.064;15.482;2024-01-15T10:24:18;29.10;;;15.87;;
7495;SDS011;3789;47.064;15.482;2024-01-15T10:26:47;30.43;;;16.27;;
7495;SDS011;3789;47.064;15.482;2024-01-15T10:29:17;33.93;;;18.53;;
7495;SDS011;3789;47.064;15.482;2024-01-15T10:31:46;28.37;;;16.27;;
7495;SDS011;3789;47.064;15.482;2024-01-15T10:34:15;19.13;;;11.80;;
7495;SDS011;3789;47.064;15.482;2024-01-15T10:36:45;19.40;;;10.97;;
7495;SDS011;3789;47.064;15.482;2024-01-15T10:39:16;18.37;;;10.27;;
7495;SDS011;3789;47.064;15.482;2024-01-15T10:41:45;14.13;;;8.50;;
7495;SDS011;3789;47.064;15.482;2024-01-15T10:44:16;14.63;;;8.33;;
7495;SDS011;3789;47.064;15.482;2024-01-15T10:46:47;13.53;;;7.80;;
7495;SDS011;3789;47.064;15.482;2024-01-15T10:49:16;9.43;;;7.47;;
7495;SDS011;3789;47.064;15.482;2024-01-15T10:51:48;13.97;;;7.90;;
7495;SDS011;3789;47.064;15.482;2024-01-15T10:54:25;14.33;;;8.50;;
7495;SDS011;3789;47.064;15.482;2024-01-15T10:56:59;11.30;;;7.20;;
7495;SDS011;3789;47.064;15.482;2024-01-15T10:59:32;10.40;;;6.63;;
7495;SDS011;3789;47.064;15.482;2024-01-15T11:02:02;14.57;;;8.73;;
7495;SDS011;3789;47.064;15.482;2024-01-15T11:04:32;13.20;;;7.90;;
7495;SDS011;3789;47.064;15.482;2024-01-15T11:07:02;15.03;;;9.37;;
7495;SDS011;3789;47.064;15.482;2024-01-15T11:09:32;20.13;;;10.63;;
7495;SDS011;3789;47.064;15.482;2024-01-15T11:12:13;19.73;;;10.73;;
7495;SDS011;3789;47.064;15.482;2024-01-15T11:14:48;12.00;;;7.83;;
7495;SDS011;3789;47.064;15.482;2024-01-15T11:17:21;12.13;;;7.67;;
7495;SDS011;3789;47.064;15.482;2024-01-15T11:19:49;15.07;;;8.67;;
7495;SDS011;3789;47.064;15.482;2024-01-15T11:25:21;15.63;;;8.83;;
7495;SDS011;3789;47.064;15.482;2024-01-15T11:27:53;15.40;;;9.70;;
7495;SDS011;3789;47.064;15.482;2024-01-15T11:30:24;14.13;;;8.13;;
7495;SDS011;3789;47.064;15.482;2024-01-15T11:32:53;13.77;;;7.33;;
7495;SDS011;3789;47.064;15.482;2024-01-15T11:35:22;15.83;;;9.57;;
7495;SDS011;3789;47.064;15.482;2024-01-15T11:38:28;14.60;;;7.43;;
7495;SDS011;3789;47.064;15.482;2024-01-15T11:41:13;13.00;;;7.33;;
7495;SDS011;3789;47.064;15.482;2024-01-15T11:43:44;11.03;;;7.20;;
7495;SDS011;3789;47.064;15.482;2024-01-15T11:46:13;11.27;;;8.07;;
7495;SDS011;3789;47.064;15.482;2024-01-15T11:48:48;10.97;;;6.73;;
7495;SDS011;3789;47.064;15.482;2024-01-15T11:51:34;12.97;;;7.37;;
7495;SDS011;3789;47.064;15.482;2024-01-15T11:54:05;12.07;;;7.87;;
7495;SDS011;3789;47.064;15.482;2024-01-15T11:56:41;12.90;;;8.00;;
7495;SDS011;3789;47.064;15.482;2024-01-15T11:59:10;11.27;;;6.30;;
7495;SDS011;3789;47.064;15.482;2024-01-15T12:01:47;11.40;;;6.43;;
7495;SDS011;3789;47.064;15.482;2024-01-15T12:04:22;10.07;;;6.70;;
7495;SDS011;3789;47.064;15.482;2024-01-15T12:06:53;10.50;;;6.83;;
7495;SDS011;3789;47.064;15.482;2024-01-15T12:09:30;11.00;;;6.77;;
7495;SDS011;3789;47.064;15.482;2024-01-15T12:12:07;10.80;;;6.73;;
7495;SDS011;3789;47.064;15.482;2024-01-15T12:14:46;11.77;;;7.13;;
7495;SDS011;3789;47.064;15.482;2024-01-15T12:17:17;12.17;;;6.97;;
7495;SDS011;3789;47.064;15.482;2024-01-15T12:19:44;10.33;;;6.30;;
7495;SDS011;3789;47.064;15.482;2024-01-15T12:22:18;9.87;;;7.27;;
7495;SDS011;3789;47.064;15.482;2024-01-15T12:24:55;15.03;;;8.20;;
7495;SDS011;3789;47.064;15.482;2024-01-15T12:27:26;12.43;;;7.13;;
7495;SDS011;3789;47.064;15.482;2024-01-15T12:29:58;11.57;;;6.87;;
7495;SDS011;3789;47.064;15.482;2024-01-15T12:32:26;9.97;;;6.20;;
7495;SDS011;3789;47.064;15.482;2024-01-15T12:34:56;13.73;;;6.70;;
7495;SDS011;3789;47.064;15.482;2024-01-15T12:37:29;11.13;;;7.00;;
7495;SDS011;3789;47.064;15.482;2024-01-15T12:39:59;11.93;;;7.13;;
7495;SDS011;3789;47.064;15.482;2024-01-15T12:42:28;11.07;;;6.80;;
7495;SDS011;3789;47.064;15.482;2024-01-15T12:44:58;9.20;;;6.77;;
7495;SDS011;3789;47.064;15.482;2024-01-15T12:47:28;11.87;;;6.80;;
7495;SDS011;3789;47.064;15.482;2024-01-15T12:50:02;10.80;;;6.50;;
7495;SDS011;3789;47.064;15.482;2024-01-15T12:52:46;12.87;;;6.80;;
7495;SDS011;3789;47.064;15.482;2024-01-15T12:55:15;11.50;;;7.00;;
7495;SDS011;3789;47.064;15.482;2024-01-15T12:57:47;12.97;;;7.40;;
7495;SDS011;3789;47.064;15.482;2024-01-15T13:00:21;11.50;;;7.13;;
7495;SDS011;3789;47.064;15.482;2024-01-15T13:02:50;13.47;;;6.90;;
7495;SDS011;3789;47.064;15.482;2024-01-15T13:05:18;11.17;;;7.07;;
7495;SDS011;3789;47.064;15.482;2024-01-15T13:07:52;11.60;;;7.30;;
7495;SDS011;3789;47.064;15.482;2024-01-15T13:10:20;12.33;;;7.30;;
7495;SDS011;3789;47.064;15.482;2024-01-15T13:12:51;12.90;;;7.57;;
7495;SDS011;3789;47.064;15.482;2024-01-15T13:15:18;11.40;;;7.87;;
7495;SDS011;3789;47.064;15.482;2024-01-15T13:17:47;10.93;;;7.23;;
7495;SDS011;3789;47.064;15.482;2024-01-15T13:20:14;11.77;;;7.13;;
7495;SDS011;3789;47.064;15.482;2024-01-15T13:22:42;10.93;;;6.97;;
7495;SDS011;3789;47.064;15.482;2024-01-15T13:25:11;9.30;;;6.53;;
7495;SDS011;3789;47.064;15.482;2024-01-15T13:27:38;11.30;;;7.53;;
7495;SDS011;3789;47.064;15.482;2024-01-15T13:30:08;10.90;;;7.40;;
7495;SDS011;3789;47.064;15.482;2024-01-15T13:32:37;10.50;;;7.20;;
7495;SDS011;3789;47.064;15.482;2024-01-15T13:35:04;12.00;;;7.23;;
7495;SDS011;3789;47.064;15.482;2024-01-15T13:37:35;10.30;;;7.43;;
7495;SDS011;3789;47.064;15.482;2024-01-15T13:40:04;9.50;;;6.60;;
7495;SDS011;3789;47.064;15.482;2024-01-15T13:42:35;12.30;;;7.57;;
7495;SDS011;3789;47.064;15.482;2024-01-15T13:45:06;9.63;;;6.40;;
7495;SDS011;3789;47.064;15.482;2024-01-15T13:47:36;9.27;;;6.27;;
7495;SDS011;3789;47.064;15.482;2024-01-15T13:50:04;11.17;;;6.47;;
7495;SDS011;3789;47.064;15.482;2024-01-15T13:52:37;10.20;;;6.80;;
7495;SDS011;3789;47.064;15.482;2024-01-15T13:55:08;10.40;;;6.63;;
7495;SDS011;3789;47.064;15.482;2024-01-15T13:57:35;8.90;;;6.80;;
7495;SDS011;3789;47.064;15.482;2024-01-15T14:00:03;13.37;;;7.43;;
7495;SDS011;3789;47.064;15.482;2024-01-15T14:02:44;13.20;;;7.40;;
7495;SDS011;3789;47.064;15.482;2024-01-15T14:05:12;11.87;;;7.10;;
7495;SDS011;3789;47.064;15.482;2024-01-15T14:08:06;9.53;;;6.77;;
7495;SDS011;3789;47.064;15.482;2024-01-15T14:10:38;10.87;;;7.37;;
7495;SDS011;3789;47.064;15.482;2024-01-15T14:13:08;15.00;;;7.43;;
7495;SDS011;3789;47.064;15.482;2024-01-15T14:15:42;13.13;;;7.67;;
7495;SDS011;3789;47.064;15.482;2024-01-15T14:18:09;11.77;;;7.07;;
7495;SDS011;3789;47.064;15.482;2024-01-15T14:20:40;11.73;;;7.30;;
7495;SDS011;3789;47.064;15.482;2024-01-15T14:23:11;11.63;;;7.33;;
7495;SDS011;3789;47.064;15.482;2024-01-15T14:25:42;10.47;;;7.23;;
7495;SDS011;3789;47.064;15.482;2024-01-15T14:28:09;12.33;;;8.10;;
7495;SDS011;3789;47.064;15.482;2024-01-15T14:30:37;15.30;;;7.80;;
7495;SDS011;3789;47.064;15.482;2024-01-15T14:33:04;11.47;;;6.97;;
7495;SDS011;3789;47.064;15.482;2024-01-15T14:35:32;13.50;;;8.30;;
7495;SDS011;3789;47.064;15.482;2024-01-15T14:37:59;15.47;;;8.67;;
7495;SDS011;3789;47.064;15.482;2024-01-15T14:40:26;16.07;;;9.23;;
7495;SDS011;3789;47.064;15.482;2024-01-15T14:42:54;16.37;;;7.80;;
7495;SDS011;3789;47.064;15.482;2024-01-15T14:45:21;13.53;;;7.40;;
7495;SDS011;3789;47.064;15.482;2024-01-15T14:47:49;10.60;;;6.37;;
7495;SDS011;3789;47.064;15.482;2024-01-15T14:50:16;11.63;;;7.53;;
7495;SDS011;3789;47.064;15.482;2024-01-15T14:52:44;12.17;;;7.30;;
7495;SDS011;3789;47.064;15.482;2024-01-15T14:55:18;10.17;;;6.87;;
7495;SDS011;3789;47.064;15.482;2024-01-15T14:57:46;11.97;;;6.40;;
7495;SDS011;3789;47.064;15.482;2024-01-15T15:00:13;11.60;;;6.50;;
7495;SDS011;3789;47.064;15.482;2024-01-15T15:02:49;11.23;;;6.70;;
7495;SDS011;3789;47.064;15.482;2024-01-15T15:05:16;10.90;;;6.67;;
7495;SDS011;3789;47.064;15.482;2024-01-15T15:07:43;10.57;;;6.63;;
7495;SDS011;3789;47.064;15.482;2024-01-15T15:10:14;10.77;;;6.93;;